Time;durP1;ratioP1;P1;durP2;ratioP2;P2;SDS_P1;SDS_P2;PMS_P1;PMS_P2;Temp;Humidity;BMP_temperature;BMP_pressure;BME280_temperature;BME280_humidity;BME280_pressure;Samples;Min_cycle;Max_cycle;Signal;HPM_P1;HPM_P2
2022/06/26 00:01:00;;;;;;;10.55;2.47;;;;;;;22.24;39.10;99482.50;5072436;28;20031;-81
2022/06/26 00:03:26;;;;;;;12.13;2.25;;;;;;;22.47;38.72;99484.50;5072329;28;20486;-81
2022/06/26 00:05:53;;;;;;;10.23;2.83;;;;;;;22.45;38.99;99481.38;5071200;28;20029;-81
2022/06/26 00:08:18;;;;;;;15.85;3.17;;;;;;;22.39;39.06;99483.84;5071155;28;20190;-81
2022/06/26 00:10:46;;;;;;;12.35;3.72;;;;;;;22.36;39.26;99486.66;5071133;28;20111;-81
2022/06/26 00:13:12;;;;;;;12.30;2.92;;;;;;;22.27;39.56;99472.50;5071125;28;20055;-92
2022/06/26 00:15:39;;;;;;;11.43;2.20;;;;;;;22.53;39.07;99471.69;5070937;28;20062;-81
2022/06/26 00:18:04;;;;;;;16.52;2.42;;;;;;;22.58;38.84;99460.03;5072167;28;20031;-81
2022/06/26 00:20:30;;;;;;;5.30;2.47;;;;;;;22.42;39.04;99457.94;5072658;28;20029;-81
2022/06/26 00:22:56;;;;;;;8.40;2.78;;;;;;;22.57;38.61;99468.81;5076062;28;20102;-82
2022/06/26 00:25:22;;;;;;;5.78;2.00;;;;;;;22.41;38.89;99459.13;5074748;28;20025;-81
2022/06/26 00:27:47;;;;;;;9.02;2.10;;;;;;;22.35;38.90;99460.03;5075891;28;20028;-81
2022/06/26 00:30:13;;;;;;;8.20;2.05;;;;;;;22.22;39.16;99443.19;5075885;28;20029;-81
2022/06/26 00:32:40;;;;;;;11.20;2.05;;;;;;;22.12;39.60;99458.03;5075857;28;20044;-81
2022/06/26 00:35:07;;;;;;;8.10;2.25;;;;;;;22.09;40.10;99456.91;5075722;28;20028;-81
2022/06/26 00:37:33;;;;;;;7.80;1.88;;;;;;;22.31;39.82;99448.22;5075666;28;20032;-81
2022/06/26 00:39:58;;;;;;;7.25;1.95;;;;;;;21.71;41.19;99447.16;5075782;28;20032;-81
2022/06/26 00:42:24;;;;;;;10.60;2.03;;;;;;;22.24;40.29;99443.53;5075600;28;20033;-81
2022/06/26 00:44:55;;;;;;;7.93;2.20;;;;;;;22.26;39.99;99440.34;5074478;28;20029;-81
2022/06/26 00:47:24;;;;;;;5.75;1.95;;;;;;;22.26;40.09;99445.91;5074270;28;20032;-81
2022/06/26 00:49:51;;;;;;;7.53;2.80;;;;;;;22.14;40.42;99431.41;5074257;28;20039;-81
2022/06/26 00:52:19;;;;;;;3.83;1.30;;;;;;;22.36;40.22;99437.34;5075463;28;20029;-81
2022/06/26 00:54:44;;;;;;;8.55;2.15;;;;;;;22.32;40.21;99435.88;5076061;28;20021;-81
2022/06/26 00:57:12;;;;;;;8.93;2.50;;;;;;;22.20;40.58;99434.47;5074480;28;20029;-81
2022/06/26 00:59:38;;;;;;;13.30;2.50;;;;;;;21.72;41.86;99440.38;5075309;28;20108;-80
2022/06/26 01:02:04;;;;;;;8.30;2.33;;;;;;;21.88;41.88;99444.09;5074127;28;20028;-81
2022/06/26 01:04:31;;;;;;;8.90;2.13;;;;;;;21.75;42.17;99422.84;5074123;28;20028;-81
2022/06/26 01:06:56;;;;;;;9.32;2.05;;;;;;;21.35;43.60;99430.97;5075375;28;20031;-81
2022/06/26 01:09:22;;;;;;;8.57;2.35;;;;;;;22.20;41.27;99439.25;5075322;28;20490;-81
2022/06/26 01:11:48;;;;;;;9.00;2.60;;;;;;;22.08;41.97;99438.66;5075788;28;20043;-94
2022/06/26 01:14:14;;;;;;;9.45;2.33;;;;;;;21.91;42.44;99430.53;5075574;28;20029;-81
2022/06/26 01:16:40;;;;;;;12.25;3.10;;;;;;;22.12;42.06;99428.22;5076195;28;20475;-81
2022/06/26 01:19:08;;;;;;;8.05;2.20;;;;;;;22.34;41.55;99425.09;5075771;28;20111;-94
2022/06/26 01:21:34;;;;;;;11.68;2.17;;;;;;;22.22;42.10;99417.34;5075731;28;20537;-82
2022/06/26 01:24:01;;;;;;;11.93;2.80;;;;;;;21.84;43.04;99418.34;5075745;28;20050;-80
2022/06/26 01:26:27;;;;;;;12.02;2.53;;;;;;;22.15;42.50;99415.50;5074273;28;20027;-92
2022/06/26 01:28:53;;;;;;;10.57;2.67;;;;;;;22.01;42.95;99410.91;5075541;28;20036;-83
2022/06/26 01:31:19;;;;;;;8.52;1.98;;;;;;;22.23;42.70;99407.81;5073978;28;20048;-81
2022/06/26 01:33:49;;;;;;;10.77;2.50;;;;;;;22.05;43.26;99400.50;5075660;28;20035;-81
2022/06/26 01:36:15;;;;;;;11.02;2.63;;;;;;;21.94;43.63;99397.13;5076307;28;20089;-94
2022/06/26 01:38:41;;;;;;;8.57;2.45;;;;;;;22.20;43.16;99391.94;5075976;28;20499;-81
2022/06/26 01:41:07;;;;;;;8.55;2.40;;;;;;;21.81;44.30;99385.03;5075050;28;20387;-81
2022/06/26 01:43:35;;;;;;;9.65;2.15;;;;;;;21.95;43.86;99384.78;5075506;28;20028;-81
2022/06/26 01:46:02;;;;;;;12.88;2.92;;;;;;;21.88;44.45;99391.25;5075503;28;20024;-81
2022/06/26 01:48:30;;;;;;;12.77;2.72;;;;;;;21.93;44.25;99390.00;5077655;28;20127;-95
2022/06/26 01:50:58;;;;;;;13.02;3.75;;;;;;;21.84;44.68;99384.97;5074297;28;20107;-81
2022/06/26 01:53:24;;;;;;;10.48;2.63;;;;;;;21.94;44.75;99394.34;5075606;28;20378;-81
2022/06/26 01:55:50;;;;;;;12.07;3.15;;;;;;;21.86;44.70;99385.34;5074730;28;20021;-81
2022/06/26 01:58:16;;;;;;;7.85;1.92;;;;;;;21.69;45.63;99377.25;5074813;28;20040;-81
2022/06/26 02:00:44;;;;;;;7.55;2.45;;;;;;;21.87;45.21;99377.78;5073834;28;20209;-80
2022/06/26 02:03:10;;;;;;;11.35;2.30;;;;;;;21.60;46.06;99384.13;5074849;28;20025;-81
2022/06/26 02:05:36;;;;;;;8.82;2.15;;;;;;;21.71;45.66;99385.97;5074840;28;20054;-92
2022/06/26 02:08:03;;;;;;;9.52;2.80;;;;;;;21.72;45.78;99382.00;5075003;28;20032;-81
2022/06/26 02:16:09;;;;;;;14.32;3.33;;;;;;;22.08;45.03;99391.34;5074571;28;20040;-94
2022/06/26 02:18:35;;;;;;;11.80;2.85;;;;;;;21.79;46.07;99387.44;5074265;28;20475;-81
2022/06/26 02:21:01;;;;;;;9.15;2.05;;;;;;;21.86;45.60;99385.34;5073056;28;20032;-92
2022/06/26 02:23:27;;;;;;;10.38;2.03;;;;;;;21.70;46.29;99392.75;5073071;28;20082;-82
2022/06/26 02:25:53;;;;;;;9.65;1.77;;;;;;;21.78;46.25;99385.88;5072323;28;20039;-81
2022/06/26 02:28:19;;;;;;;10.75;1.92;;;;;;;21.82;45.97;99386.59;5073512;28;20036;-81
2022/06/26 02:30:46;;;;;;;6.90;1.88;;;;;;;21.83;45.91;99388.94;5072362;28;20528;-81
2022/06/26 02:33:12;;;;;;;11.13;1.70;;;;;;;22.10;45.50;99386.16;5073761;28;20082;-91
2022/06/26 02:35:37;;;;;;;6.93;1.70;;;;;;;22.01;45.72;99373.97;5073557;28;20028;-81
2022/06/26 02:38:03;;;;;;;9.52;2.35;;;;;;;21.73;46.29;99383.56;5072488;28;20036;-81
2022/06/26 02:40:30;;;;;;;6.35;1.83;;;;;;;21.93;45.85;99378.88;5072342;28;20039;-81
2022/06/26 02:42:56;;;;;;;5.45;1.38;;;;;;;21.85;46.16;99385.75;5073265;28;20360;-81
2022/06/26 02:45:23;;;;;;;9.13;1.80;;;;;;;21.89;45.93;99380.91;5073266;28;20268;-81
2022/06/26 02:47:49;;;;;;;5.82;1.48;;;;;;;22.04;45.53;99389.81;5071801;28;20051;-81
2022/06/26 02:50:15;;;;;;;5.93;1.50;;;;;;;21.95;46.04;99390.34;5072075;28;20115;-88
2022/06/26 02:52:42;;;;;;;8.65;1.38;;;;;;;22.06;45.57;99392.94;5072349;28;20101;-81
2022/06/26 02:55:08;;;;;;;7.68;2.42;;;;;;;22.21;45.03;99385.94;5073244;28;20029;-82
2022/06/26 02:57:34;;;;;;;7.80;1.75;;;;;;;22.06;45.72;99392.94;5073301;28;20028;-81
2022/06/26 02:59:59;;;;;;;12.52;2.05;;;;;;;22.14;45.43;99391.63;5073364;28;20028;-92
2022/06/26 03:02:25;;;;;;;4.30;0.93;;;;;;;22.27;45.01;99394.59;5073199;28;20054;-82
2022/06/26 03:04:53;;;;;;;3.30;0.88;;;;;;;22.01;45.89;99383.09;5071976;28;20138;-82
2022/06/26 03:07:19;;;;;;;6.90;1.38;;;;;;;22.32;45.16;99388.56;5073354;28;20029;-81
2022/06/26 03:09:45;;;;;;;4.05;1.48;;;;;;;22.02;45.87;99395.78;5072852;28;20033;-81
2022/06/26 03:12:11;;;;;;;6.45;0.95;;;;;;;21.99;45.88;99391.09;5071938;28;20139;-81
2022/06/26 03:14:37;;;;;;;3.53;1.05;;;;;;;22.02;45.89;99389.44;5072061;28;20059;-81
2022/06/26 03:17:03;;;;;;;4.10;1.25;;;;;;;21.84;46.42;99395.31;5071999;28;20036;-81
2022/06/26 03:19:29;;;;;;;4.85;1.38;;;;;;;21.78;46.39;99389.44;5073104;28;20032;-91
2022/06/26 03:21:55;;;;;;;3.92;0.90;;;;;;;22.12;45.79;99400.41;5073322;28;20423;-82
2022/06/26 03:24:20;;;;;;;2.80;0.85;;;;;;;22.14;45.61;99392.44;5072425;28;20029;-91
2022/06/26 03:26:47;;;;;;;7.28;0.80;;;;;;;21.89;46.52;99397.59;5073604;28;20063;-81
2022/06/26 03:29:12;;;;;;;4.43;0.82;;;;;;;22.14;45.63;99397.19;5073191;28;20037;-85
2022/06/26 03:31:39;;;;;;;3.00;1.17;;;;;;;21.89;46.46;99403.16;5071792;28;20451;-89
2022/06/26 03:34:04;;;;;;;1.50;0.60;;;;;;;21.98;46.32;99403.41;5073058;28;20035;-81
2022/06/26 03:36:30;;;;;;;3.58;0.82;;;;;;;22.18;45.49;99405.50;5072877;28;20099;-83
2022/06/26 03:38:57;;;;;;;2.15;0.70;;;;;;;22.08;45.92;99404.47;5071693;28;20028;-81
2022/06/26 03:41:22;;;;;;;2.88;0.60;;;;;;;22.19;45.59;99402.28;5071307;28;20036;-81
2022/06/26 03:43:49;;;;;;;1.88;0.50;;;;;;;22.19;45.68;99416.19;5072623;28;20021;-82
2022/06/26 03:46:15;;;;;;;1.42;0.32;;;;;;;22.09;45.85;99412.41;5072742;28;20036;-82
2022/06/26 03:48:42;;;;;;;1.75;0.60;;;;;;;22.13;45.93;99413.09;5071036;28;20517;-82
2022/06/26 03:51:08;;;;;;;0.98;0.50;;;;;;;22.34;45.16;99405.59;5072481;28;20081;-81
2022/06/26 03:53:35;;;;;;;0.80;0.30;;;;;;;22.36;44.97;99408.75;5072757;28;20107;-81
2022/06/26 03:56:01;;;;;;;2.47;0.50;;;;;;;22.27;45.25;99416.88;5073859;28;20036;-82
2022/06/26 03:58:26;;;;;;;1.90;0.50;;;;;;;22.55;44.77;99418.34;5075290;28;20039;-81
2022/06/26 04:00:53;;;;;;;1.02;0.40;;;;;;;22.39;45.13;99424.59;5076661;28;20036;-82
2022/06/26 04:03:19;;;;;;;1.85;0.50;;;;;;;22.30;45.31;99418.81;5076500;28;20127;-81
2022/06/26 04:05:45;;;;;;;2.30;0.75;;;;;;;22.27;45.06;99422.44;5075136;28;20098;-81
2022/06/26 04:08:11;;;;;;;2.08;0.50;;;;;;;22.38;44.60;99420.25;5076458;28;20112;-82
2022/06/26 04:10:37;;;;;;;1.90;0.73;;;;;;;22.29;45.04;99425.56;5076364;28;20036;-81
2022/06/26 04:13:05;;;;;;;3.88;0.85;;;;;;;22.39;44.87;99430.19;5076431;28;20040;-83
2022/06/26 04:15:32;;;;;;;3.58;0.55;;;;;;;22.52;44.36;99435.88;5076255;28;20107;-82
2022/06/26 04:17:58;;;;;;;0.77;0.30;;;;;;;22.57;44.19;99430.63;5076259;28;20028;-81
2022/06/26 04:20:25;;;;;;;1.95;0.60;;;;;;;22.37;44.64;99427.81;5076435;28;20024;-81
2022/06/26 04:25:38;;;;;;;6.05;0.80;;;;;;;22.30;44.93;99438.28;5191078;22;20513;-81
2022/06/26 04:28:05;;;;;;;1.63;0.50;;;;;;;22.16;45.31;99442.09;4976935;28;20029;-81
2022/06/26 04:30:31;;;;;;;1.73;0.50;;;;;;;22.17;45.29;99440.88;4977089;28;20037;-81
2022/06/26 04:32:57;;;;;;;2.35;0.70;;;;;;;22.19;45.18;99434.88;4976117;28;20035;-81
2022/06/26 04:35:22;;;;;;;1.98;0.73;;;;;;;21.89;46.02;99433.75;4976083;28;20362;-81
2022/06/26 04:37:49;;;;;;;3.40;0.52;;;;;;;22.09;45.58;99442.22;4977177;28;20031;-81
2022/06/26 04:40:15;;;;;;;1.38;0.40;;;;;;;22.01;45.68;99443.50;4976098;28;20022;-81
2022/06/26 04:42:42;;;;;;;2.17;0.60;;;;;;;22.14;45.39;99445.31;4977143;28;20035;-81
2022/06/26 04:45:09;;;;;;;1.38;0.60;;;;;;;22.25;45.14;99452.69;4975870;28;20027;-81
2022/06/26 04:47:37;;;;;;;4.43;0.65;;;;;;;22.22;45.04;99447.94;4975765;28;20117;-81
2022/06/26 04:50:03;;;;;;;1.02;0.60;;;;;;;22.21;45.15;99447.16;4970014;28;20385;-81
2022/06/26 04:52:29;;;;;;;1.02;0.40;;;;;;;22.06;45.53;99452.13;4957676;28;20110;-82
2022/06/26 04:54:55;;;;;;;3.53;0.55;;;;;;;21.98;45.80;99455.47;4957642;28;20584;-81
2022/06/26 04:57:22;;;;;;;1.73;0.30;;;;;;;22.07;45.64;99459.28;4957589;28;20485;-88
2022/06/26 04:59:48;;;;;;;4.35;0.73;;;;;;;22.13;45.34;99451.28;4972279;28;20024;-81
2022/06/26 05:02:14;;;;;;;0.63;0.50;;;;;;;22.21;45.45;99451.94;4972634;28;20035;-91
2022/06/26 05:04:39;;;;;;;2.70;0.75;;;;;;;22.11;45.51;99460.03;4972819;28;20027;-88
2022/06/26 05:07:05;;;;;;;0.45;0.32;;;;;;;22.29;45.24;99454.19;4957402;28;20113;-91
2022/06/26 05:09:31;;;;;;;2.92;0.90;;;;;;;22.33;45.12;99456.91;4972355;28;20038;-91
2022/06/26 05:11:58;;;;;;;0.65;0.28;;;;;;;22.31;45.24;99454.56;4957535;28;20035;-87
2022/06/26 05:14:24;;;;;;;0.98;0.57;;;;;;;22.29;45.14;99454.19;4957534;28;20027;-81
2022/06/26 05:16:50;;;;;;;2.58;0.60;;;;;;;22.36;45.13;99453.25;4957467;29;20027;-81
2022/06/26 05:19:15;;;;;;;2.03;0.55;;;;;;;22.49;44.51;99453.44;4971955;28;20098;-81
2022/06/26 05:21:41;;;;;;;1.70;0.70;;;;;;;22.29;45.15;99456.97;4958016;28;20027;-89
2022/06/26 05:24:07;;;;;;;4.78;0.47;;;;;;;22.20;45.29;99453.16;4971510;28;20051;-87
2022/06/26 05:26:34;;;;;;;1.23;0.40;;;;;;;22.29;45.37;99456.16;4981398;28;20031;-80
2022/06/26 05:29:00;;;;;;;2.70;0.80;;;;;;;22.03;45.71;99461.34;4976036;28;20077;-80
2022/06/26 05:31:25;;;;;;;1.85;0.45;;;;;;;22.46;44.78;99459.88;4975998;28;20388;-80
2022/06/26 05:33:51;;;;;;;1.85;0.52;;;;;;;22.34;45.02;99469.59;4976724;28;20027;-89
2022/06/26 05:36:17;;;;;;;0.40;0.32;;;;;;;22.28;44.87;99469.28;4976495;28;20078;-83
2022/06/26 05:38:42;;;;;;;3.00;0.50;;;;;;;22.48;44.68;99476.94;4992232;28;20089;-90
2022/06/26 05:41:08;;;;;;;1.88;0.50;;;;;;;22.08;45.74;99476.81;4976084;28;20448;-90
2022/06/26 05:43:34;;;;;;;3.90;0.73;;;;;;;22.26;45.17;99474.50;4977069;28;20031;-91
2022/06/26 05:46:00;;;;;;;3.50;0.60;;;;;;;22.22;45.21;99482.13;4976773;28;20062;-85
2022/06/26 05:48:26;;;;;;;2.20;0.73;;;;;;;22.31;45.01;99490.72;4976121;28;20026;-91
2022/06/26 05:50:52;;;;;;;1.27;0.60;;;;;;;22.22;45.48;99484.09;4992456;28;20085;-90
2022/06/26 05:53:19;;;;;;;1.92;0.40;;;;;;;22.22;45.32;99489.66;4995082;28;20030;-91
2022/06/26 05:55:45;;;;;;;1.83;0.60;;;;;;;22.56;44.46;99493.09;4995539;28;20026;-80
2022/06/26 05:58:11;;;;;;;2.33;0.52;;;;;;;22.73;43.96;99502.31;4993702;28;20038;-80
2022/06/26 06:00:38;;;;;;;1.83;0.40;;;;;;;22.62;44.33;99496.19;4989120;28;20035;-82
2022/06/26 06:03:04;;;;;;;2.03;0.50;;;;;;;22.51;44.71;99504.69;4994417;28;20023;-88
2022/06/26 06:05:30;;;;;;;0.40;0.40;;;;;;;22.65;44.46;99504.44;4995967;28;20034;-81
2022/06/26 06:07:56;;;;;;;1.85;0.50;;;;;;;22.51;44.87;99513.03;4996015;28;20043;-91
2022/06/26 06:10:23;;;;;;;3.72;0.60;;;;;;;22.60;44.62;99506.97;4995040;28;20511;-81
2022/06/26 06:12:50;;;;;;;1.52;0.60;;;;;;;22.65;44.49;99512.00;4994977;28;20022;-90
2022/06/26 06:15:17;;;;;;;2.10;0.60;;;;;;;22.70;44.04;99519.91;4987308;28;20132;-81
2022/06/26 06:17:44;;;;;;;2.17;0.55;;;;;;;22.77;43.76;99516.97;4982182;28;20174;-80
2022/06/26 06:20:10;;;;;;;3.08;0.70;;;;;;;22.67;44.33;99524.31;4981171;28;20023;-80
2022/06/26 06:22:36;;;;;;;2.00;0.52;;;;;;;22.89;43.69;99526.72;4981520;28;20078;-81
2022/06/26 06:25:01;;;;;;;8.55;2.05;;;;;;;22.97;43.61;99531.78;4982587;28;20070;-85
2022/06/26 06:27:27;;;;;;;2.22;0.57;;;;;;;23.08;43.60;99530.78;4997336;28;20512;-80
2022/06/26 06:29:52;;;;;;;3.58;0.80;;;;;;;23.16;43.32;99532.22;4983587;28;20034;-81
2022/06/26 06:32:18;;;;;;;4.38;1.40;;;;;;;23.20;43.56;99541.28;4983408;28;20041;-81
2022/06/26 06:34:44;;;;;;;1.83;0.80;;;;;;;23.08;44.13;99537.13;4983447;28;20069;-80
2022/06/26 06:37:10;;;;;;;3.15;0.90;;;;;;;23.24;43.67;99547.56;4980597;28;20034;-80
2022/06/26 06:39:36;;;;;;;4.47;1.08;;;;;;;23.21;43.64;99549.22;4974722;28;20030;-92
2022/06/26 06:42:02;;;;;;;6.30;1.42;;;;;;;23.28;43.92;99551.09;4981845;28;20108;-81
2022/06/26 06:44:28;;;;;;;2.13;0.80;;;;;;;23.13;43.85;99552.56;4982999;28;20022;-81
2022/06/26 06:46:54;;;;;;;3.65;1.27;;;;;;;23.30;43.99;99557.00;4984397;28;20461;-93
2022/06/26 06:49:20;;;;;;;2.63;1.00;;;;;;;23.32;43.58;99567.72;4982818;28;20100;-88
2022/06/26 06:51:45;;;;;;;3.50;0.88;;;;;;;23.36;43.60;99569.25;4982932;28;20034;-82
2022/06/26 06:54:11;;;;;;;3.45;0.85;;;;;;;23.41;43.74;99576.31;4981786;28;20090;-89
2022/06/26 06:56:36;;;;;;;1.38;0.70;;;;;;;23.30;43.98;99582.09;4979150;28;20493;-83
2022/06/26 06:59:03;;;;;;;3.28;1.25;;;;;;;23.54;43.47;99575.25;4991215;28;20034;-86
2022/06/26 07:01:28;;;;;;;3.05;0.90;;;;;;;23.39;44.02;99581.53;4981386;28;20027;-86
2022/06/26 07:03:54;;;;;;;1.95;0.75;;;;;;;23.28;43.70;99583.75;4972026;28;20037;-90
2022/06/26 07:06:19;;;;;;;9.45;1.77;;;;;;;23.49;43.44;99583.31;4973145;28;20456;-82
2022/06/26 07:08:45;;;;;;;4.68;1.08;;;;;;;23.51;43.56;99592.06;4969736;28;20035;-82
2022/06/26 07:11:10;;;;;;;3.25;0.85;;;;;;;23.56;43.29;99591.53;4954860;28;20505;-82
2022/06/26 07:13:36;;;;;;;3.28;0.63;;;;;;;23.61;43.01;99601.44;4957644;28;20397;-82
2022/06/26 07:16:03;;;;;;;2.53;0.85;;;;;;;23.91;42.20;99592.84;4956634;28;20038;-83
2022/06/26 07:18:28;;;;;;;2.83;0.95;;;;;;;23.94;42.12;99580.81;4956453;28;20568;-83
2022/06/26 07:20:54;;;;;;;1.98;1.00;;;;;;;23.91;42.33;99606.00;4956804;28;20035;-83
2022/06/26 07:23:20;;;;;;;2.13;0.63;;;;;;;23.94;42.26;99602.34;4956579;28;20121;-82
2022/06/26 07:25:46;;;;;;;1.02;0.60;;;;;;;23.84;42.20;99620.09;4957989;28;20047;-84
2022/06/26 07:28:12;;;;;;;4.07;0.90;;;;;;;23.81;42.64;99621.75;4956103;28;20141;-82
2022/06/26 07:30:37;;;;;;;1.33;0.80;;;;;;;24.13;41.73;99631.44;4958308;28;20023;-82
2022/06/26 07:35:51;;;;;;;1.77;0.80;;;;;;;23.87;42.52;99630.38;4958001;28;20043;-83
2022/06/26 07:38:17;;;;;;;5.60;0.90;;;;;;;24.02;42.32;99637.22;4957471;28;20043;-82
2022/06/26 07:40:42;;;;;;;4.03;0.95;;;;;;;24.07;42.65;99640.31;4956495;28;20031;-82
2022/06/26 07:43:08;;;;;;;3.03;0.80;;;;;;;24.01;42.53;99647.59;4957314;28;20027;-87
2022/06/26 07:45:34;;;;;;;4.22;0.90;;;;;;;24.08;42.69;99647.47;4956725;28;20035;-84
2022/06/26 07:47:59;;;;;;;4.18;1.00;;;;;;;24.29;42.03;99654.59;4957421;28;20613;-83
2022/06/26 07:50:25;;;;;;;3.88;0.65;;;;;;;24.38;42.00;99654.03;4962527;28;20030;-90
2022/06/26 07:52:50;;;;;;;6.70;1.60;;;;;;;24.30;42.26;99664.53;4972337;28;20110;-82
2022/06/26 07:55:17;;;;;;;3.60;0.88;;;;;;;24.22;42.14;99656.75;4972445;28;20118;-85
2022/06/26 07:57:43;;;;;;;2.88;0.88;;;;;;;24.21;41.88;99667.13;4972881;28;20031;-90
2022/06/26 08:00:09;;;;;;;2.60;0.95;;;;;;;24.27;42.10;99665.41;4975096;28;20425;-89
2022/06/26 08:02:35;;;;;;;3.60;0.95;;;;;;;24.25;42.00;99659.44;4989374;28;20031;-89
2022/06/26 08:05:00;;;;;;;4.53;1.55;;;;;;;24.32;41.88;99661.31;4975346;28;20130;-81
2022/06/26 08:07:26;;;;;;;2.30;0.90;;;;;;;24.33;41.68;99671.28;4980222;28;20073;-82
2022/06/26 08:09:52;;;;;;;0.90;0.47;;;;;;;24.15;41.96;99666.06;4981154;28;20065;-82
2022/06/26 08:12:17;;;;;;;5.95;1.40;;;;;;;24.22;41.92;99676.28;4974751;28;20026;-89
2022/06/26 08:14:43;;;;;;;3.35;0.70;;;;;;;24.32;41.64;99676.06;4974092;28;20503;-84
2022/06/26 08:17:09;;;;;;;2.80;0.90;;;;;;;24.27;41.78;99675.78;4975876;28;20102;-89
2022/06/26 08:19:34;;;;;;;4.22;0.98;;;;;;;24.47;41.10;99672.97;4973098;28;20042;-85
2022/06/26 08:22:03;;;;;;;3.20;0.73;;;;;;;24.41;41.86;99666.31;4976209;28;20101;-84
2022/06/26 08:24:30;;;;;;;4.35;0.70;;;;;;;24.40;42.19;99678.72;4960310;28;20443;-85
2022/06/26 08:26:56;;;;;;;5.25;0.90;;;;;;;24.59;42.14;99672.31;4955973;28;20081;-87
2022/06/26 08:29:22;;;;;;;2.40;0.88;;;;;;;25.02;41.49;99674.09;4971396;28;20047;-79
2022/06/26 08:31:48;;;;;;;3.78;0.90;;;;;;;24.96;41.81;99675.81;4957268;28;20041;-79
2022/06/26 08:34:14;;;;;;;2.55;0.70;;;;;;;24.90;41.86;99679.13;4956986;28;20035;-79
2022/06/26 08:36:39;;;;;;;2.67;0.63;;;;;;;25.10;41.43;99681.09;4959069;28;20050;-91
2022/06/26 08:39:08;;;;;;;2.83;0.73;;;;;;;24.85;41.57;99682.44;4959002;28;20241;-81
2022/06/26 08:41:45;;;;;;;17.80;1.07;;;;;;;25.16;41.44;99673.72;4957563;28;20078;-80
2022/06/26 08:44:12;;;;;;;2.28;0.57;;;;;;;25.15;41.48;99672.94;4962294;28;20126;-81
2022/06/26 08:46:47;;;;;;;1.23;0.70;;;;;;;25.44;40.39;99672.22;4962670;28;20541;-83
2022/06/26 08:49:19;;;;;;;2.78;0.82;;;;;;;25.72;40.28;99670.69;4960343;28;20403;-85
2022/06/26 08:51:46;;;;;;;6.20;1.00;;;;;;;25.68;40.05;99670.75;4959890;28;20038;-81
2022/06/26 08:54:13;;;;;;;2.20;0.70;;;;;;;25.70;39.76;99673.13;4961850;28;20027;-80
2022/06/26 08:56:42;;;;;;;3.22;0.57;;;;;;;26.00;39.61;99671.91;4966276;28;20093;-80
2022/06/26 08:59:09;;;;;;;2.15;0.95;;;;;;;26.39;38.52;99679.19;4981342;28;20086;-80
2022/06/26 09:01:39;;;;;;;2.20;0.90;;;;;;;26.17;39.02;99673.41;4985238;28;20057;-80
2022/06/26 09:04:05;;;;;;;;;;;;;;;26.03;38.25;99681.44;4960704;28;20030;-81
2022/06/26 09:06:33;;;;;;;2.28;0.90;;;;;;;26.37;38.08;99681.59;4960647;28;20037;-80
2022/06/26 09:08:59;;;;;;;1.20;0.65;;;;;;;26.42;37.96;99689.47;4960722;28;20035;-81
2022/06/26 09:11:24;;;;;;;1.40;0.70;;;;;;;26.35;37.83;99689.66;4959993;28;20381;-80
2022/06/26 09:13:53;;;;;;;3.78;0.68;;;;;;;26.69;37.40;99682.66;4960386;28;20115;-81
2022/06/26 09:16:29;;;;;;;3.53;0.50;;;;;;;26.65;37.18;99685.56;4959744;28;20038;-87
2022/06/26 09:18:54;;;;;;;2.20;0.77;;;;;;;26.73;36.94;99702.94;4959055;28;20039;-87
2022/06/26 09:21:26;;;;;;;3.72;0.73;;;;;;;26.76;37.02;99704.84;4961983;28;20093;-87
2022/06/26 09:23:55;;;;;;;4.05;0.70;;;;;;;26.95;36.87;99700.25;4961631;28;20081;-81
2022/06/26 09:26:21;;;;;;;4.57;0.70;;;;;;;26.94;36.50;99701.47;4960867;28;20050;-82
2022/06/26 09:28:47;;;;;;;0.85;0.50;;;;;;;26.49;37.31;99705.28;4967090;28;20047;-80
2022/06/26 09:31:22;;;;;;;2.33;0.43;;;;;;;26.85;36.63;99712.59;4986295;28;20035;-81
2022/06/26 09:33:48;;;;;;;2.80;0.95;;;;;;;26.85;36.86;99724.56;4972613;28;20746;-80
2022/06/26 09:36:16;;;;;;;1.98;0.50;;;;;;;26.57;37.34;99719.84;4980015;28;20022;-80
2022/06/26 09:38:51;;;;;;;0.85;0.40;;;;;;;26.38;37.72;99718.81;4995599;28;20053;-80
2022/06/26 09:41:28;;;;;;;1.92;0.55;;;;;;;26.62;36.92;99719.31;4958898;28;20042;-80
2022/06/26 09:43:55;;;;;;;0.93;0.63;;;;;;;26.42;37.27;99714.69;4959025;28;20476;-81
2022/06/26 09:46:30;;;;;;;4.90;0.70;;;;;;;26.69;36.96;99714.28;4958259;28;20093;-83
2022/06/26 09:48:58;;;;;;;3.25;1.38;;;;;;;26.53;37.21;99715.16;4982946;28;20042;-81
2022/06/26 09:51:24;;;;;;;3.55;0.95;;;;;;;26.80;36.88;99711.91;4958819;28;20026;-80
2022/06/26 09:53:51;;;;;;;3.72;0.63;;;;;;;26.83;36.80;99722.22;4957077;28;20023;-80
2022/06/26 09:56:17;;;;;;;4.47;0.80;;;;;;;27.05;36.11;99727.97;4956523;28;20043;-79
2022/06/26 09:58:43;;;;;;;1.85;0.52;;;;;;;27.13;36.23;99699.69;4959393;28;20057;-80
2022/06/26 10:06:43;;;;;;;3.25;0.90;;;;;;;27.45;35.30;99726.66;4958718;28;20114;-81
2022/06/26 10:09:09;;;;;;;2.47;0.50;;;;;;;27.49;35.19;99725.28;4958812;28;20034;-80
2022/06/26 10:11:44;;;;;;;2.70;0.77;;;;;;;27.10;34.89;99738.59;4957724;28;20401;-80
2022/06/26 10:14:15;;;;;;;8.40;1.27;;;;;;;27.30;35.01;99737.56;4958518;28;20027;-80
2022/06/26 10:16:56;;;;;;;5.97;0.98;;;;;;;27.38;35.42;99741.72;4957432;28;20540;-81
2022/06/26 10:19:28;;;;;;;4.00;0.93;;;;;;;27.65;34.94;99732.75;4958171;28;20038;-81
2022/06/26 10:21:54;;;;;;;7.03;0.63;;;;;;;27.84;34.95;99736.56;4957433;28;20472;-81
2022/06/26 10:24:20;;;;;;;1.83;0.95;;;;;;;27.95;34.82;99736.16;4956995;28;20025;-82
2022/06/26 10:26:58;;;;;;;1.98;0.50;;;;;;;27.78;34.62;99736.34;4957052;28;20457;-82
2022/06/26 10:29:37;;;;;;;1.10;0.50;;;;;;;27.95;34.85;99733.34;4956721;28;20393;-84
2022/06/26 10:32:04;;;;;;;2.05;0.70;;;;;;;27.95;34.53;99731.31;4962975;28;20026;-83
2022/06/26 10:34:31;;;;;;;3.45;0.60;;;;;;;28.06;34.28;99723.31;4958211;28;20031;-84
2022/06/26 10:37:04;;;;;;;2.20;0.60;;;;;;;28.34;34.39;99729.13;4957077;28;20164;-83
2022/06/26 10:39:42;;;;;;;4.68;0.70;;;;;;;28.18;33.74;99730.09;4956679;28;20025;-82
2022/06/26 10:45:36;;;;;;;3.53;0.68;;;;;;;28.15;34.21;99747.84;4958307;28;20073;-82
2022/06/26 10:48:24;;;;;;;0.40;0.30;;;;;;;28.42;33.79;99728.41;4958719;28;20026;-83
2022/06/26 10:51:01;;;;;;;3.40;0.70;;;;;;;28.56;34.19;99731.91;4957144;28;20311;-83
2022/06/26 10:53:37;;;;;;;7.80;1.40;;;;;;;28.96;33.57;99734.78;4956843;28;20181;-83
2022/06/26 10:56:05;;;;;;;4.55;0.50;;;;;;;28.95;33.65;99736.03;4958809;28;20489;-83
2022/06/26 10:58:44;;;;;;;1.50;0.40;;;;;;;28.98;33.10;99735.09;4957992;28;20026;-83
2022/06/26 11:01:11;;;;;;;8.57;1.33;;;;;;;28.65;33.21;99746.03;4958165;28;20025;-83
2022/06/26 11:03:39;;;;;;;3.72;1.13;;;;;;;28.73;33.08;99736.84;4956851;28;20397;-83
2022/06/26 11:06:07;;;;;;;4.80;0.68;;;;;;;28.69;33.03;99744.63;4955850;28;20516;-83
2022/06/26 11:08:39;;;;;;;3.63;0.85;;;;;;;28.66;33.14;99751.16;4967883;28;20035;-82
2022/06/26 11:11:34;;;;;;;2.88;1.20;;;;;;;28.86;33.33;99756.41;4974351;28;20019;-82
2022/06/26 11:14:02;;;;;;;2.55;0.75;;;;;;;28.82;33.37;99755.00;4974085;28;20121;-82
2022/06/26 11:16:33;;;;;;;1.23;0.55;;;;;;;28.88;33.55;99759.56;4957380;28;20439;-85
2022/06/26 11:19:03;;;;;;;0.82;0.50;;;;;;;29.19;33.45;99753.13;4957961;28;20026;-83
2022/06/26 11:21:29;;;;;;;5.75;1.05;;;;;;;29.05;33.17;99745.28;4956257;28;20042;-82
2022/06/26 11:23:56;;;;;;;1.98;0.57;;;;;;;29.30;32.96;99754.25;4966354;28;20533;-82
2022/06/26 11:26:22;;;;;;;3.70;0.80;;;;;;;29.42;32.74;99754.59;4973937;28;20081;-83
2022/06/26 11:29:00;;;;;;;4.95;1.33;;;;;;;29.03;32.38;99754.19;4972800;28;20092;-82
2022/06/26 11:31:27;;;;;;;2.08;0.80;;;;;;;29.35;32.14;99764.09;4974309;28;20054;-83
2022/06/26 11:33:53;;;;;;;1.45;0.63;;;;;;;29.35;32.51;99780.22;4974018;28;20069;-83
2022/06/26 11:36:22;;;;;;;1.80;0.55;;;;;;;28.92;33.90;99785.50;4974308;28;20058;-82
2022/06/26 11:38:54;;;;;;;3.53;0.95;;;;;;;28.47;35.26;99800.06;4973966;28;20027;-82
2022/06/26 11:41:22;;;;;;;4.72;0.73;;;;;;;28.37;35.38;99787.22;4972662;28;20022;-82
2022/06/26 11:43:53;;;;;;;3.00;0.93;;;;;;;28.35;36.01;99792.50;4958310;28;20045;-84
2022/06/26 11:46:19;;;;;;;11.50;0.95;;;;;;;28.29;35.97;99785.88;4957409;28;20022;-83
2022/06/26 11:48:48;;;;;;;2.65;1.15;;;;;;;28.28;36.54;99787.91;4956674;28;20560;-83
2022/06/26 11:51:16;;;;;;;2.93;0.80;;;;;;;28.35;37.25;99789.69;4956893;28;20035;-83